Time;durP1;ratioP1;P1;durP2;ratioP2;P2;SDS_P1;SDS_P2;PMS_P1;PMS_P2;Temp;Humidity;BMP_temperature;BMP_pressure;BME280_temperature;BME280_humidity;BME280_pressure;Samples;Min_cycle;Max_cycle;Signal;HPM_P1;HPM_P2
2022/03/09 00:00:31;;;;;;;7.80;3.85;;;2.00;63.20;;;;;;5072659;28;20576;-79
2022/03/09 00:02:57;;;;;;;6.30;4.17;;;2.00;62.90;;;;;;5090554;28;20234;-78
2022/03/09 00:05:22;;;;;;;8.37;4.00;;;2.10;61.70;;;;;;5091040;28;20449;-78
2022/03/09 00:07:48;;;;;;;6.90;3.80;;;2.10;62.10;;;;;;5090152;28;20542;-78
2022/03/09 00:10:14;;;;;;;6.40;4.10;;;2.10;62.40;;;;;;5090338;28;20246;-78
2022/03/09 00:12:39;;;;;;;7.70;4.67;;;2.10;61.70;;;;;;5090283;28;20202;-78
2022/03/09 00:15:05;;;;;;;4.00;3.70;;;2.20;61.40;;;;;;5090103;28;20808;-78
2022/03/09 00:17:31;;;;;;;7.97;4.43;;;2.20;61.60;;;;;;5089792;28;20185;-78
2022/03/09 00:19:57;;;;;;;8.07;4.20;;;2.20;61.10;;;;;;5090565;28;20417;-77
2022/03/09 00:22:22;;;;;;;8.80;3.90;;;2.20;61.30;;;;;;5090165;28;20262;-77
2022/03/09 00:24:48;;;;;;;8.13;5.57;;;2.30;60.50;;;;;;5088240;28;20215;-78
2022/03/09 00:27:13;;;;;;;5.93;4.10;;;2.00;63.70;;;;;;5071274;28;20640;-77
2022/03/09 00:29:39;;;;;;;6.77;5.30;;;1.90;64.90;;;;;;5087813;28;20236;-78
2022/03/09 00:32:06;;;;;;;9.07;5.40;;;1.80;65.60;;;;;;5087952;28;20202;-78
2022/03/09 00:34:33;;;;;;;8.40;5.57;;;1.60;67.10;;;;;;5088000;28;20718;-78
2022/03/09 00:36:58;;;;;;;7.85;5.63;;;1.40;67.40;;;;;;5090748;28;20187;-78
2022/03/09 00:39:24;;;;;;;7.03;5.23;;;1.40;68.00;;;;;;5090099;28;20684;-79
2022/03/09 00:41:50;;;;;;;10.23;6.03;;;1.40;68.00;;;;;;5091155;28;20213;-79
2022/03/09 00:44:15;;;;;;;7.13;5.53;;;1.30;68.80;;;;;;5088804;28;20184;-80
2022/03/09 00:46:41;;;;;;;10.30;7.07;;;1.10;70.00;;;;;;5090156;28;20258;-79
2022/03/09 00:49:07;;;;;;;11.80;7.43;;;1.00;72.10;;;;;;5090304;28;20573;-79
2022/03/09 00:51:32;;;;;;;12.80;7.53;;;0.80;72.50;;;;;;5071602;28;20215;-78
2022/03/09 00:53:58;;;;;;;9.73;6.07;;;0.70;73.30;;;;;;5089852;28;20215;-79
2022/03/09 00:56:24;;;;;;;11.63;6.37;;;0.60;74.70;;;;;;5088795;28;20178;-78
2022/03/09 00:58:49;;;;;;;7.67;5.67;;;0.50;76.70;;;;;;5088627;28;20631;-78
2022/03/09 01:01:15;;;;;;;8.20;5.30;;;0.40;76.80;;;;;;5092304;28;20207;-77
2022/03/09 01:03:41;;;;;;;6.90;4.90;;;0.30;77.40;;;;;;5094139;28;20182;-79
2022/03/09 01:06:07;;;;;;;4.60;4.10;;;0.20;77.80;;;;;;5092776;28;20187;-77
2022/03/09 01:08:33;;;;;;;7.33;4.70;;;0.20;78.50;;;;;;5094074;28;20182;-78
2022/03/09 01:10:58;;;;;;;4.77;4.30;;;0.10;79.70;;;;;;5092494;28;21017;-79
2022/03/09 01:13:24;;;;;;;5.43;4.90;;;0.00;80.20;;;;;;5094550;28;20179;-79
2022/03/09 01:15:50;;;;;;;9.67;5.50;;;0.00;80.80;;;;;;5094040;28;20187;-80
2022/03/09 01:18:16;;;;;;;6.77;5.03;;;-0.10;82.50;;;;;;5095252;28;20855;-78
2022/03/09 01:20:42;;;;;;;6.47;4.83;;;-0.20;82.40;;;;;;5076129;28;20425;-77
2022/03/09 01:23:08;;;;;;;6.25;4.57;;;-0.30;83.40;;;;;;5092680;28;20428;-78
2022/03/09 01:25:34;;;;;;;4.97;4.20;;;-0.40;84.20;;;;;;5094009;28;20538;-79
2022/03/09 01:27:59;;;;;;;6.10;4.70;;;-0.50;83.80;;;;;;5093238;28;20209;-78
2022/03/09 01:30:25;;;;;;;6.00;4.60;;;-0.60;83.80;;;;;;5074997;28;20563;-78
2022/03/09 01:32:51;;;;;;;6.80;4.77;;;-0.50;84.00;;;;;;5092243;28;20202;-78
2022/03/09 01:35:17;;;;;;;5.47;4.63;;;-0.50;84.30;;;;;;5092556;28;20186;-79
2022/03/09 01:37:43;;;;;;;6.37;4.03;;;-0.50;84.80;;;;;;5094329;28;20216;-79
2022/03/09 01:40:09;;;;;;;6.30;4.57;;;-0.40;84.70;;;;;;5095603;28;20426;-79
2022/03/09 01:42:34;;;;;;;7.38;4.50;;;-0.50;84.80;;;;;;5075163;28;20210;-78
2022/03/09 01:45:05;;;;;;;8.53;4.33;;;-0.50;85.10;;;;;;5091459;28;20254;-78
2022/03/09 01:47:30;;;;;;;7.40;4.65;;;-0.60;85.40;;;;;;5092996;28;20182;-79
2022/03/09 01:49:56;;;;;;;6.90;3.83;;;-0.60;85.60;;;;;;5093534;28;20214;-78
2022/03/09 01:52:23;;;;;;;7.03;4.80;;;-0.60;86.60;;;;;;5090692;28;20208;-79
2022/03/09 01:54:50;;;;;;;6.68;4.70;;;-0.70;86.50;;;;;;5090451;28;20307;-78
2022/03/09 01:57:16;;;;;;;7.43;4.97;;;-0.60;86.30;;;;;;5092127;28;20550;-77
2022/03/09 01:59:42;;;;;;;5.13;3.80;;;-0.60;86.40;;;;;;5090767;28;20184;-78
2022/03/09 02:02:08;;;;;;;7.80;4.90;;;-0.60;85.90;;;;;;5092552;28;20228;-78
2022/03/09 02:04:33;;;;;;;6.40;4.82;;;-0.70;85.90;;;;;;5092776;28;20178;-78
2022/03/09 02:06:59;;;;;;;5.70;4.30;;;-0.70;86.90;;;;;;5093146;28;20186;-78
2022/03/09 02:09:44;;;;;;;12.10;6.33;;;-0.70;87.00;;;;;;5094191;28;20241;-78
2022/03/09 02:12:16;;;;;;;7.32;4.22;;;-0.70;86.90;;;;;;5092210;28;20233;-78
2022/03/09 02:14:44;;;;;;;9.18;4.82;;;-0.60;86.70;;;;;;5091830;28;20277;-78
2022/03/09 02:17:16;;;;;;;6.20;4.60;;;-0.50;85.70;;;;;;5090438;28;20665;-78
2022/03/09 02:19:43;;;;;;;7.85;4.63;;;-0.70;86.20;;;;;;5091577;28;20187;-78
2022/03/09 02:22:37;;;;;;;8.85;4.13;;;-0.80;87.10;;;;;;5074155;28;20554;-78
2022/03/09 02:25:09;;;;;;;6.07;4.63;;;-0.80;87.80;;;;;;5096564;28;20170;-79
2022/03/09 02:27:35;;;;;;;8.60;4.55;;;-0.90;88.50;;;;;;5078959;28;20194;-79
2022/03/09 02:30:01;;;;;;;8.40;5.10;;;-0.90;89.10;;;;;;5093209;28;20562;-78
2022/03/09 02:32:27;;;;;;;9.57;5.10;;;-1.00;90.00;;;;;;5091667;28;20432;-79
2022/03/09 02:34:52;;;;;;;7.00;3.90;;;-1.00;89.90;;;;;;5091626;28;20186;-78
2022/03/09 02:37:18;;;;;;;9.93;4.90;;;-1.00;89.90;;;;;;5090563;28;20651;-78
2022/03/09 02:39:44;;;;;;;5.80;4.63;;;-1.00;89.90;;;;;;5090326;28;20205;-77
2022/03/09 02:42:10;;;;;;;6.70;4.83;;;-0.90;89.30;;;;;;5090538;28;20792;-78
2022/03/09 02:44:36;;;;;;;7.03;5.00;;;-0.80;89.50;;;;;;5091652;28;21161;-78
2022/03/09 02:47:02;;;;;;;9.17;5.00;;;-0.80;88.50;;;;;;5090152;28;20183;-77
2022/03/09 02:49:28;;;;;;;6.78;4.80;;;-0.70;88.20;;;;;;5089801;28;20983;-77
2022/03/09 02:51:54;;;;;;;5.57;4.30;;;-0.70;88.30;;;;;;5090047;28;20194;-78
2022/03/09 02:54:19;;;;;;;9.23;5.20;;;-0.80;88.40;;;;;;5089942;28;20198;-78
2022/03/09 02:56:45;;;;;;;11.83;5.10;;;-0.90;88.20;;;;;;5090279;28;20177;-78
2022/03/09 02:59:11;;;;;;;13.50;5.70;;;-0.80;88.80;;;;;;5091240;28;20240;-78
2022/03/09 03:01:37;;;;;;;8.30;5.90;;;-0.80;88.90;;;;;;5089658;28;20211;-78
2022/03/09 03:04:03;;;;;;;11.68;5.40;;;-0.90;88.90;;;;;;5090943;28;20181;-78
2022/03/09 03:06:28;;;;;;;8.73;5.00;;;-0.90;89.30;;;;;;5089446;28;20183;-78
2022/03/09 03:08:54;;;;;;;5.80;4.80;;;-0.90;89.70;;;;;;5097571;28;20255;-80
2022/03/09 03:11:20;;;;;;;10.63;5.07;;;-0.90;89.60;;;;;;5100639;28;20279;-79
2022/03/09 03:13:48;;;;;;;11.03;4.90;;;-0.90;90.00;;;;;;5100743;28;20178;-79
2022/03/09 03:16:14;;;;;;;11.82;5.10;;;-1.00;90.00;;;;;;5094080;28;20841;-77
2022/03/09 03:18:40;;;;;;;7.83;5.20;;;-0.90;89.70;;;;;;5089249;28;20263;-77
2022/03/09 03:21:05;;;;;;;7.10;5.00;;;-0.80;89.00;;;;;;5090156;28;20205;-77
2022/03/09 03:23:33;;;;;;;8.77;5.17;;;-0.70;88.60;;;;;;5089401;28;20218;-77
2022/03/09 03:25:59;;;;;;;6.88;4.95;;;-0.60;88.20;;;;;;5090336;28;20175;-79
2022/03/09 03:28:25;;;;;;;9.27;5.03;;;-0.60;87.80;;;;;;5094253;28;20190;-79
2022/03/09 03:30:52;;;;;;;7.57;4.60;;;-0.60;87.40;;;;;;5098573;28;20780;-79
2022/03/09 03:33:19;;;;;;;8.82;5.32;;;-0.60;88.30;;;;;;5098535;28;20429;-80
2022/03/09 03:35:46;;;;;;;10.30;5.50;;;-0.60;88.30;;;;;;5093144;28;20180;-78
2022/03/09 03:38:11;;;;;;;7.63;4.97;;;-0.70;88.70;;;;;;5094404;28;20269;-80
2022/03/09 03:40:38;;;;;;;10.53;5.30;;;-0.60;87.90;;;;;;5074788;28;20218;-81
2022/03/09 03:43:04;;;;;;;7.95;4.40;;;-0.50;87.10;;;;;;5090707;28;20444;-79
2022/03/09 03:45:30;;;;;;;12.02;5.25;;;-0.40;86.40;;;;;;5090106;28;20235;-79
2022/03/09 03:47:56;;;;;;;13.63;5.47;;;-0.30;85.90;;;;;;5091949;28;20283;-79
2022/03/09 03:50:22;;;;;;;32.40;15.10;;;-0.30;85.30;;;;;;5075046;28;20308;-79
2022/03/09 03:52:47;;;;;;;23.63;11.07;;;-0.20;85.10;;;;;;5089358;28;20444;-79
2022/03/09 03:55:14;;;;;;;11.93;6.27;;;-0.10;84.80;;;;;;5072694;28;20198;-78
2022/03/09 03:57:39;;;;;;;12.98;5.90;;;-0.10;85.30;;;;;;5090572;28;20206;-78
2022/03/09 04:00:06;;;;;;;10.07;6.27;;;-0.50;86.90;;;;;;5073006;28;20218;-79
2022/03/09 04:02:32;;;;;;;8.25;5.15;;;-0.70;89.10;;;;;;5089278;28;20219;-78
2022/03/09 04:04:58;;;;;;;10.97;5.27;;;-0.90;90.10;;;;;;5089152;28;20191;-79
2022/03/09 04:07:23;;;;;;;9.17;5.53;;;-1.00;90.30;;;;;;5088697;28;20666;-79
2022/03/09 04:09:49;;;;;;;12.13;5.40;;;-1.00;90.80;;;;;;5089836;28;20209;-77
2022/03/09 04:12:14;;;;;;;8.40;5.17;;;-1.00;90.60;;;;;;5088371;28;20195;-78
2022/03/09 04:14:40;;;;;;;8.90;5.47;;;-1.00;90.60;;;;;;5089452;28;20182;-77
2022/03/09 04:17:06;;;;;;;11.00;5.27;;;-1.00;90.50;;;;;;5089575;28;20204;-78
2022/03/09 04:19:31;;;;;;;7.40;5.40;;;-1.20;91.10;;;;;;5088012;28;20187;-78
2022/03/09 04:21:57;;;;;;;7.53;5.30;;;-1.30;91.80;;;;;;5089375;28;20208;-77
2022/03/09 04:24:23;;;;;;;6.83;5.20;;;-1.50;91.90;;;;;;5088328;28;20175;-77
2022/03/09 04:26:48;;;;;;;9.60;5.00;;;-1.50;92.40;;;;;;5088336;28;20189;-77
2022/03/09 04:29:14;;;;;;;10.07;5.30;;;-1.40;92.50;;;;;;5089654;28;20298;-77
2022/03/09 04:31:40;;;;;;;10.43;5.90;;;-1.40;92.40;;;;;;5089403;28;20241;-77
2022/03/09 04:34:06;;;;;;;15.43;5.25;;;-1.40;92.50;;;;;;5089439;28;20679;-77
2022/03/09 04:36:31;;;;;;;9.50;5.70;;;-1.50;92.90;;;;;;5088218;28;20273;-75
2022/03/09 04:38:57;;;;;;;14.63;6.03;;;-1.50;92.90;;;;;;5088205;28;20194;-77
2022/03/09 04:41:22;;;;;;;10.30;5.70;;;-1.50;92.70;;;;;;5089403;28;20203;-77
2022/03/09 04:43:49;;;;;;;9.40;5.33;;;-1.40;92.60;;;;;;5088357;28;20195;-77
2022/03/09 04:46:15;;;;;;;8.43;5.63;;;-1.50;92.60;;;;;;5090149;28;20209;-79
2022/03/09 04:48:40;;;;;;;9.60;5.85;;;-1.50;92.70;;;;;;5090979;28;20174;-79
2022/03/09 04:51:06;;;;;;;12.13;6.87;;;-1.50;92.90;;;;;;5089725;28;20214;-78
2022/03/09 04:53:32;;;;;;;8.50;6.00;;;-1.60;93.20;;;;;;5088332;28;20194;-77
2022/03/09 04:55:58;;;;;;;9.98;5.88;;;-1.70;93.50;;;;;;5089667;28;20178;-77
2022/03/09 04:58:24;;;;;;;9.37;6.40;;;-1.70;93.60;;;;;;5091753;28;20878;-79
2022/03/09 05:00:51;;;;;;;11.57;6.90;;;-1.70;93.40;;;;;;5091404;28;20203;-79
2022/03/09 05:03:16;;;;;;;12.43;7.30;;;-1.70;93.60;;;;;;5089616;28;20215;-80
2022/03/09 05:05:42;;;;;;;15.63;8.43;;;-1.80;93.90;;;;;;5055109;28;20583;-78
2022/03/09 05:08:09;;;;;;;17.90;7.20;;;-1.80;94.10;;;;;;5088199;28;20216;-79
2022/03/09 05:10:35;;;;;;;11.57;6.47;;;-1.80;94.50;;;;;;5087882;28;20218;-77
2022/03/09 05:13:01;;;;;;;10.68;6.22;;;-1.90;94.30;;;;;;5087800;28;20243;-79
2022/03/09 05:15:27;;;;;;;9.43;6.20;;;-1.90;94.50;;;;;;5088830;28;20206;-79
2022/03/09 05:17:53;;;;;;;11.70;7.00;;;-1.90;94.80;;;;;;5090359;28;20412;-77
2022/03/09 05:20:20;;;;;;;9.87;6.80;;;-2.00;94.50;;;;;;5089990;28;20673;-79
2022/03/09 05:22:47;;;;;;;11.00;6.30;;;-2.00;94.80;;;;;;5091405;28;20710;-78
2022/03/09 05:25:13;;;;;;;9.27;6.35;;;-2.10;94.80;;;;;;5090162;28;20187;-81
2022/03/09 05:27:39;;;;;;;17.08;7.80;;;-2.10;95.10;;;;;;5090268;28;20604;-80
2022/03/09 05:30:08;;;;;;;12.35;6.85;;;-2.10;94.80;;;;;;5088362;28;20586;-77
2022/03/09 05:32:34;;;;;;;11.18;6.63;;;-2.10;94.90;;;;;;5086140;28;20202;-76
2022/03/09 05:34:59;;;;;;;11.03;6.93;;;-2.20;94.90;;;;;;5087532;28;20524;-77
2022/03/09 05:37:28;;;;;;;10.47;6.63;;;-2.10;95.00;;;;;;5086468;28;20676;-78
2022/03/09 05:39:54;;;;;;;11.10;6.80;;;-2.20;94.80;;;;;;5087666;28;20221;-78
2022/03/09 05:42:19;;;;;;;10.10;6.80;;;-2.20;95.00;;;;;;5087821;28;20233;-77
2022/03/09 05:44:45;;;;;;;8.30;5.70;;;-2.20;95.00;;;;;;5053100;28;20194;-77
2022/03/09 05:47:10;;;;;;;10.80;6.57;;;-2.20;94.80;;;;;;5091746;28;20194;-76
2022/03/09 05:49:36;;;;;;;11.07;5.83;;;-2.20;94.90;;;;;;5073199;28;20241;-77
2022/03/09 05:52:04;;;;;;;10.47;6.77;;;-2.20;94.80;;;;;;5090386;28;20609;-77
2022/03/09 05:54:29;;;;;;;16.17;6.93;;;-2.20;94.90;;;;;;5089755;28;20429;-77
2022/03/09 05:56:55;;;;;;;14.07;7.10;;;-2.20;95.50;;;;;;5072889;28;20178;-77
2022/03/09 05:59:21;;;;;;;11.10;7.70;;;-2.30;96.00;;;;;;5089551;28;20720;-77
2022/03/09 06:01:47;;;;;;;17.83;9.20;;;-2.40;96.40;;;;;;5091322;28;20451;-77
2022/03/09 06:04:13;;;;;;;16.63;9.40;;;-2.40;96.50;;;;;;5090126;28;20270;-77
2022/03/09 06:06:38;;;;;;;17.43;8.90;;;-2.40;96.50;;;;;;5089791;28;20189;-78
2022/03/09 06:09:04;;;;;;;16.67;8.63;;;-2.30;96.80;;;;;;5089394;28;20443;-77
2022/03/09 06:11:30;;;;;;;12.23;7.57;;;-2.30;96.80;;;;;;5089056;28;20209;-77
2022/03/09 06:13:55;;;;;;;18.73;8.80;;;-2.30;96.50;;;;;;5089489;28;20655;-77
2022/03/09 06:16:21;;;;;;;12.37;7.20;;;-2.30;96.60;;;;;;5089368;28;20720;-77
2022/03/09 06:18:47;;;;;;;9.30;6.67;;;-2.40;96.20;;;;;;5072317;28;20190;-77
2022/03/09 06:21:15;;;;;;;8.47;5.97;;;-2.30;96.30;;;;;;5089134;28;20187;-77
2022/03/09 06:23:42;;;;;;;10.18;8.00;;;-2.30;96.10;;;;;;5088756;28;20283;-77
2022/03/09 06:26:07;;;;;;;13.05;6.32;;;-2.20;95.90;;;;;;5089903;28;20547;-78
2022/03/09 06:28:33;;;;;;;21.70;9.40;;;-2.10;96.00;;;;;;5089727;28;20207;-77
2022/03/09 06:30:59;;;;;;;58.67;23.70;;;-2.10;96.50;;;;;;5089605;28;20467;-78
2022/03/09 06:33:25;;;;;;;74.30;25.20;;;-2.00;96.50;;;;;;5089431;28;20210;-77
2022/03/09 06:35:51;;;;;;;39.83;18.13;;;-1.40;95.90;;;;;;5089504;28;20183;-78
2022/03/09 06:38:16;;;;;;;17.93;10.10;;;-0.40;93.50;;;;;;5089665;28;20420;-78
2022/03/09 06:40:43;;;;;;;13.27;7.90;;;0.20;91.10;;;;;;5090641;28;20186;-78
2022/03/09 06:43:09;;;;;;;11.43;7.65;;;1.00;90.00;;;;;;5090814;28;20436;-76
2022/03/09 06:45:34;;;;;;;11.45;7.78;;;1.80;86.10;;;;;;5090582;28;20180;-78
2022/03/09 06:48:04;;;;;;;11.47;7.43;;;2.30;82.00;;;;;;5090603;28;20286;-78
2022/03/09 06:50:30;;;;;;;11.07;7.00;;;2.70;78.10;;;;;;5088877;28;20848;-79
2022/03/09 06:52:56;;;;;;;15.03;8.37;;;3.30;77.00;;;;;;5071815;28;20202;-76
2022/03/09 06:55:22;;;;;;;20.10;7.63;;;3.50;74.70;;;;;;5090207;28;20269;-77
2022/03/09 06:57:47;;;;;;;15.33;8.87;;;3.50;74.50;;;;;;5089026;28;20178;-78
2022/03/09 07:00:14;;;;;;;13.13;9.57;;;3.80;74.00;;;;;;5091015;28;20913;-77
2022/03/09 07:02:41;;;;;;;15.67;10.17;;;4.30;71.60;;;;;;5088212;28;20206;-77
2022/03/09 07:05:07;;;;;;;12.07;7.47;;;4.80;69.40;;;;;;5091195;28;20421;-78
2022/03/09 07:07:33;;;;;;;10.97;7.70;;;5.20;68.40;;;;;;5089594;28;20456;-78
2022/03/09 07:09:59;;;;;;;12.10;8.90;;;5.20;66.50;;;;;;5088847;28;20469;-78
2022/03/09 07:12:25;;;;;;;16.50;10.10;;;5.00;65.60;;;;;;5090217;28;20848;-78
2022/03/09 07:14:51;;;;;;;16.23;9.90;;;4.70;65.70;;;;;;5089608;28;20185;-78
2022/03/09 07:17:17;;;;;;;22.97;13.33;;;4.70;66.60;;;;;;5088862;28;20413;-78
2022/03/09 07:19:43;;;;;;;22.70;13.70;;;4.70;67.20;;;;;;5087646;28;20239;-78
2022/03/09 07:22:09;;;;;;;19.40;12.67;;;4.50;66.40;;;;;;5088829;28;20448;-78
2022/03/09 07:24:35;;;;;;;18.90;11.63;;;4.60;67.50;;;;;;5088736;28;20182;-78
2022/03/09 07:27:01;;;;;;;20.53;12.03;;;4.60;66.90;;;;;;5087378;28;20195;-78
2022/03/09 07:29:26;;;;;;;16.50;10.83;;;4.80;67.00;;;;;;5087077;28;21260;-77
2022/03/09 07:31:53;;;;;;;17.83;10.20;;;4.80;66.20;;;;;;5088342;28;20790;-78
2022/03/09 07:34:29;;;;;;;16.43;10.67;;;4.80;65.50;;;;;;5088273;28;20175;-77
2022/03/09 07:36:58;;;;;;;22.13;12.20;;;5.00;65.50;;;;;;5087961;28;20419;-76
2022/03/09 07:39:29;;;;;;;17.37;10.73;;;5.00;65.10;;;;;;5089484;28;20445;-78
2022/03/09 07:41:55;;;;;;;21.43;14.70;;;5.10;65.90;;;;;;5089305;28;20447;-78
2022/03/09 07:44:22;;;;;;;29.57;17.00;;;5.00;64.70;;;;;;5089019;28;20439;-77
2022/03/09 07:46:48;;;;;;;20.75;12.25;;;5.10;65.30;;;;;;5089026;28;20426;-77
2022/03/09 07:49:15;;;;;;;30.53;11.67;;;5.40;63.80;;;;;;5088799;28;20206;-77
2022/03/09 07:51:41;;;;;;;15.00;10.97;;;5.60;63.80;;;;;;5088009;28;20436;-77
2022/03/09 07:54:06;;;;;;;21.80;13.70;;;5.70;63.00;;;;;;5090679;28;20442;-77
2022/03/09 07:56:34;;;;;;;19.23;10.73;;;5.30;63.40;;;;;;5070404;28;20264;-77
2022/03/09 07:59:00;;;;;;;15.00;10.80;;;5.30;64.90;;;;;;5070567;28;20183;-78
2022/03/09 08:01:26;;;;;;;18.93;11.00;;;5.40;66.10;;;;;;5088413;28;20504;-78
2022/03/09 08:03:53;;;;;;;18.10;9.67;;;5.60;65.20;;;;;;5070012;28;20429;-77
2022/03/09 08:06:18;;;;;;;14.17;10.50;;;5.60;64.60;;;;;;5086818;28;20206;-77
2022/03/09 08:08:44;;;;;;;16.33;10.27;;;5.70;64.40;;;;;;5069552;28;20459;-78
2022/03/09 08:11:10;;;;;;;20.90;11.00;;;5.90;65.20;;;;;;5086608;28;20240;-77
2022/03/09 08:13:35;;;;;;;23.00;13.47;;;6.10;65.50;;;;;;5087777;28;20182;-78
2022/03/09 08:16:01;;;;;;;17.80;10.40;;;6.30;64.60;;;;;;5086714;28;20243;-77
2022/03/09 08:18:26;;;;;;;16.93;10.40;;;6.70;62.40;;;;;;5087851;28;20202;-77
2022/03/09 08:20:52;;;;;;;20.03;11.70;;;7.10;61.30;;;;;;5087135;28;20179;-77
2022/03/09 08:23:18;;;;;;;15.30;10.90;;;7.30;60.20;;;;;;5088136;28;20206;-77
2022/03/09 08:25:44;;;;;;;15.80;10.80;;;7.70;60.60;;;;;;5087073;28;20185;-78
2022/03/09 08:28:09;;;;;;;16.13;10.67;;;7.80;60.10;;;;;;5070028;28;20425;-78
2022/03/09 08:30:37;;;;;;;17.60;10.90;;;7.90;59.10;;;;;;5086976;28;21066;-78
2022/03/09 08:33:02;;;;;;;17.87;10.30;;;8.10;58.50;;;;;;5088550;28;20199;-79
2022/03/09 08:35:28;;;;;;;14.60;10.43;;;8.40;58.20;;;;;;5088004;28;20797;-78
2022/03/09 08:37:53;;;;;;;15.83;11.07;;;8.70;57.20;;;;;;5088278;28;20189;-78
2022/03/09 08:40:19;;;;;;;19.70;11.27;;;9.00;56.50;;;;;;5088800;28;20204;-79
2022/03/09 08:42:45;;;;;;;25.83;11.67;;;9.20;55.90;;;;;;5088388;28;20215;-77
2022/03/09 08:45:10;;;;;;;23.70;15.03;;;9.30;55.70;;;;;;5087153;28;20293;-78
2022/03/09 08:47:39;;;;;;;17.27;11.40;;;9.60;55.30;;;;;;5088599;28;20209;-79
2022/03/09 08:50:05;;;;;;;17.93;10.73;;;9.90;56.00;;;;;;5088189;28;20216;-79
2022/03/09 08:52:31;;;;;;;18.03;11.47;;;10.20;54.00;;;;;;5087876;28;20445;-78
2022/03/09 08:54:57;;;;;;;18.80;11.90;;;10.50;52.70;;;;;;5088113;28;20444;-77
2022/03/09 08:57:22;;;;;;;20.70;11.70;;;10.60;52.80;;;;;;5089562;28;20177;-78
2022/03/09 08:59:48;;;;;;;16.30;11.87;;;11.10;51.70;;;;;;5090040;28;20230;-77
2022/03/09 09:02:14;;;;;;;16.37;11.10;;;11.00;51.30;;;;;;5090030;28;20233;-79
2022/03/09 09:04:40;;;;;;;18.27;11.17;;;11.60;51.40;;;;;;5091275;28;20449;-77
2022/03/09 09:07:06;;;;;;;19.83;12.57;;;12.00;50.00;;;;;;5072667;28;20189;-78
2022/03/09 09:09:32;;;;;;;21.97;12.50;;;12.10;49.00;;;;;;5091408;28;20200;-79
2022/03/09 09:11:59;;;;;;;20.77;12.23;;;12.30;48.70;;;;;;5089434;28;20486;-78
2022/03/09 09:14:26;;;;;;;13.63;10.77;;;12.80;48.20;;;;;;5091393;28;20424;-79
2022/03/09 09:16:52;;;;;;;18.50;11.90;;;13.40;47.40;;;;;;5072547;28;20448;-79
2022/03/09 09:19:18;;;;;;;19.23;12.80;;;13.80;46.90;;;;;;5090692;28;20809;-78
2022/03/09 09:21:44;;;;;;;16.50;11.93;;;13.70;45.80;;;;;;5075298;28;20542;-79
2022/03/09 09:24:10;;;;;;;18.27;12.20;;;13.70;45.80;;;;;;5075783;28;20431;-80
2022/03/09 09:26:36;;;;;;;20.60;12.60;;;13.40;45.20;;;;;;5092866;28;20890;-80
2022/03/09 09:29:02;;;;;;;28.17;13.00;;;13.40;45.40;;;;;;5092934;28;20174;-76
2022/03/09 09:31:27;;;;;;;21.80;12.87;;;13.60;45.80;;;;;;5059157;28;20259;-79
2022/03/09 09:33:53;;;;;;;19.30;12.50;;;13.80;45.00;;;;;;5092327;28;20181;-80
2022/03/09 09:36:19;;;;;;;19.77;13.70;;;13.90;45.50;;;;;;5092852;28;20208;-79
2022/03/09 09:38:44;;;;;;;16.60;12.80;;;14.10;44.40;;;;;;5094134;28;20178;-80
2022/03/09 09:41:16;;;;;;;19.20;12.53;;;14.40;43.30;;;;;;5093536;28;20293;-78
2022/03/09 09:43:43;;;;;;;27.63;13.20;;;15.00;44.50;;;;;;5092559;28;20686;-80
2022/03/09 09:46:12;;;;;;;21.40;13.20;;;15.00;43.20;;;;;;5092556;28;20435;-78
2022/03/09 09:48:38;;;;;;;21.80;12.53;;;15.10;43.10;;;;;;5094048;28;20416;-77
2022/03/09 09:51:04;;;;;;;19.10;14.23;;;15.40;42.60;;;;;;5091833;28;20467;-80
2022/03/09 09:53:33;;;;;;;22.07;13.70;;;15.30;42.70;;;;;;5091833;28;20205;-78
2022/03/09 09:56:00;;;;;;;19.70;12.90;;;15.50;42.80;;;;;;5093746;28;20175;-78
2022/03/09 09:58:28;;;;;;;18.50;13.10;;;15.40;42.40;;;;;;5095118;28;20422;-78
2022/03/09 10:00:55;;;;;;;21.03;14.40;;;15.40;42.00;;;;;;5093658;28;20814;-78
2022/03/09 10:03:21;;;;;;;24.83;15.60;;;15.60;42.00;;;;;;5091290;28;20452;-76
2022/03/09 10:05:47;;;;;;;23.17;15.43;;;15.60;41.60;;;;;;5092993;28;20534;-77
2022/03/09 10:08:15;;;;;;;25.70;15.23;;;15.70;40.80;;;;;;5075012;28;20428;-78
2022/03/09 10:10:55;;;;;;;25.50;15.03;;;15.40;40.40;;;;;;5092635;28;20509;-78
2022/03/09 10:13:22;;;;;;;27.30;14.53;;;15.70;41.20;;;;;;5091327;28;20515;-77
2022/03/09 10:16:05;;;;;;;21.60;15.40;;;15.60;40.20;;;;;;5091737;28;20469;-78
2022/03/09 10:18:31;;;;;;;21.63;15.43;;;15.90;40.60;;;;;;5090101;28;21075;-77
2022/03/09 10:21:11;;;;;;;25.33;15.33;;;16.30;40.00;;;;;;5091728;28;20504;-77
2022/03/09 10:23:56;;;;;;;24.67;15.23;;;16.10;39.50;;;;;;5091703;28;20793;-79
2022/03/09 10:26:44;;;;;;;20.10;14.47;;;16.10;39.10;;;;;;5090435;28;20425;-79
2022/03/09 10:29:12;;;;;;;21.53;16.30;;;16.10;38.50;;;;;;5090522;28;20507;-80
2022/03/09 10:31:47;;;;;;;23.50;15.80;;;16.10;37.50;;;;;;5089732;28;20531;-79
2022/03/09 10:34:20;;;;;;;26.83;14.90;;;16.30;36.60;;;;;;5090180;28;20428;-78
2022/03/09 10:37:01;;;;;;;23.40;15.80;;;16.40;36.80;;;;;;5091259;28;20417;-77
2022/03/09 10:39:39;;;;;;;20.53;15.03;;;16.50;35.70;;;;;;5089537;28;20457;-78
2022/03/09 10:42:25;;;;;;;21.40;14.87;;;17.20;35.50;;;;;;5089538;28;20452;-76
2022/03/09 10:44:52;;;;;;;23.57;16.00;;;17.20;33.80;;;;;;5089786;28;20518;-80
2022/03/09 10:47:32;;;;;;;18.67;13.90;;;17.20;33.80;;;;;;5090261;28;20494;-78
2022/03/09 10:50:11;;;;;;;21.57;15.33;;;17.60;32.50;;;;;;5089307;28;20465;-79
2022/03/09 10:52:48;;;;;;;20.77;14.93;;;17.60;33.10;;;;;;5089394;28;20486;-79
2022/03/09 10:55:25;;;;;;;21.27;16.40;;;17.90;32.80;;;;;;5091121;28;20431;-79
2022/03/09 10:58:05;;;;;;;22.37;15.20;;;18.10;31.50;;;;;;5089053;28;20908;-78
2022/03/09 11:00:57;;;;;;;23.40;14.97;;;18.20;32.20;;;;;;5089706;28;20422;-79
2022/03/09 11:03:25;;;;;;;22.87;16.93;;;18.50;32.30;;;;;;5088220;28;20962;-78
2022/03/09 11:05:53;;;;;;;21.40;16.23;;;18.70;31.00;;;;;;5090551;28;20515;-79
2022/03/09 11:08:20;;;;;;;22.00;15.60;;;18.80;30.10;;;;;;5091802;28;20421;-77
2022/03/09 11:10:47;;;;;;;18.50;13.77;;;18.70;29.50;;;;;;5090203;28;20449;-78
2022/03/09 11:13:13;;;;;;;21.10;15.07;;;18.50;29.30;;;;;;5073895;28;20979;-78
2022/03/09 11:15:43;;;;;;;22.20;15.43;;;18.50;28.30;;;;;;5091918;28;20422;-77
2022/03/09 11:18:19;;;;;;;20.40;16.00;;;18.50;28.70;;;;;;5091903;28;20919;-78
2022/03/09 11:20:51;;;;;;;20.67;14.77;;;18.30;27.90;;;;;;5090204;28;20426;-78
2022/03/09 11:23:17;;;;;;;23.03;14.77;;;18.20;28.20;;;;;;5091840;28;20851;-77
2022/03/09 11:26:10;;;;;;;21.57;16.23;;;18.30;28.70;;;;;;5092378;28;20412;-78
2022/03/09 11:28:38;;;;;;;27.33;16.40;;;18.40;28.80;;;;;;5092064;28;20420;-78
2022/03/09 11:31:05;;;;;;;21.67;15.03;;;18.60;27.90;;;;;;5091460;28;20488;-79
2022/03/09 11:33:47;;;;;;;23.87;16.40;;;18.50;28.40;;;;;;5089967;28;20446;-77
2022/03/09 11:36:26;;;;;;;22.97;16.13;;;18.20;27.60;;;;;;5090445;28;20772;-77
2022/03/09 11:38:53;;;;;;;22.13;15.43;;;18.30;27.80;;;;;;5091848;28;20416;-78
2022/03/09 11:41:27;;;;;;;21.60;15.40;;;18.50;28.10;;;;;;5088989;28;20447;-80
2022/03/09 11:43:54;;;;;;;19.63;14.90;;;18.40;28.20;;;;;;5088317;28;20806;-78
2022/03/09 11:46:21;;;;;;;21.47;16.60;;;18.40;27.70;;;;;;5071564;28;20970;-78
2022/03/09 11:48:49;;;;;;;19.60;15.93;;;18.30;28.20;;;;;;5088661;28;20855;-78
2022/03/09 11:51:15;;;;;;;21.63;15.90;;;18.20;27.50;;;;;;5088356;28;20452;-80
2022/03/09 11:53:50;;;;;;;19.53;15.90;;;18.20;27.90;;;;;;5090320;28;20464;-79
2022/03/09 11:56:39;;;;;;;22.40;16.50;;;18.40;26.80;;;;;;5089161;28;20991;-78
2022/03/09 11:59:18;;;;;;;21.37;16.27;;;18.30;26.20;;;;;;5089046;28;20797;-78
2022/03/09 12:01:59;;;;;;;21.90;15.00;;;18.50;27.50;;;;;;5089580;28;20426;-78
2022/03/09 12:04:42;;;;;;;22.70;16.37;;;18.20;26.50;;;;;;5089696;28;20418;-80
2022/03/09 12:07:12;;;;;;;28.13;15.63;;;18.20;26.60;;;;;;5089569;28;20403;-78
2022/03/09 12:09:58;;;;;;;23.43;16.40;;;18.70;27.50;;;;;;5088694;28;20549;-80
2022/03/09 12:12:31;;;;;;;24.00;16.80;;;19.00;27.10;;;;;;5071904;28;20457;-81
2022/03/09 12:15:09;;;;;;;23.53;14.97;;;19.10;26.10;;;;;;5088708;28;20905;-83
2022/03/09 12:17:42;;;;;;;20.90;15.90;;;18.90;25.40;;;;;;5088208;28;20426;-79
2022/03/09 12:20:23;;;;;;;19.60;15.40;;;18.90;26.30;;;;;;5071891;28;20430;-79
2022/03/09 12:23:00;;;;;;;26.23;16.10;;;18.90;25.70;;;;;;5089306;28;20525;-79
2022/03/09 12:25:51;;;;;;;21.50;16.60;;;19.00;25.90;;;;;;5087754;28;20418;-79
2022/03/09 12:28:26;;;;;;;23.40;15.83;;;19.00;26.50;;;;;;5087953;28;20921;-80
2022/03/09 12:31:19;;;;;;;23.50;15.03;;;18.80;25.90;;;;;;5087537;28;20475;-80
2022/03/09 12:33:49;;;;;;;25.43;15.17;;;19.10;26.40;;;;;;5087395;28;20940;-80
2022/03/09 12:36:19;;;;;;;24.63;15.57;;;19.00;25.60;;;;;;5088069;28;20434;-81
2022/03/09 12:38:57;;;;;;;22.43;15.90;;;18.80;25.00;;;;;;5089585;28;21268;-80
2022/03/09 12:41:25;;;;;;;23.80;15.27;;;19.20;26.10;;;;;;5070857;28;20441;-79